createdAt,value
2023-11-30T00:02:07.516Z,-1.04
2023-11-30T00:05:10.210Z,-1.08
2023-11-30T00:08:12.508Z,-1.12
2023-11-30T00:11:14.832Z,-1.08
2023-11-30T00:14:17.102Z,-0.94
2023-11-30T00:17:19.379Z,-0.96
2023-11-30T00:20:21.654Z,-0.95
2023-11-30T00:23:23.919Z,-0.93
2023-11-30T00:26:26.238Z,-0.89
2023-11-30T00:29:30.940Z,-0.96
2023-11-30T00:32:33.140Z,-0.98
2023-11-30T00:35:35.988Z,-0.97
2023-11-30T00:38:38.114Z,-0.92
2023-11-30T00:41:40.290Z,-0.94
2023-11-30T00:44:42.524Z,-0.92
2023-11-30T00:47:44.805Z,-0.95
2023-11-30T00:50:47.167Z,-0.91
2023-11-30T00:53:49.520Z,-0.89
2023-11-30T00:56:51.883Z,-0.97
2023-11-30T00:59:54.228Z,-1.00
2023-11-30T01:02:56.760Z,-0.97
2023-11-30T01:05:59.152Z,-0.90
2023-11-30T01:09:01.443Z,-0.90
2023-11-30T01:12:03.822Z,-0.88
2023-11-30T01:15:06.829Z,-0.84
2023-11-30T01:18:09.169Z,-0.83
2023-11-30T01:21:11.581Z,-0.91
2023-11-30T01:24:14.013Z,-0.94
2023-11-30T01:27:17.267Z,-0.97
2023-11-30T01:30:20.299Z,-0.99
2023-11-30T01:33:22.670Z,-1.07
2023-11-30T01:36:24.860Z,-1.21
2023-11-30T01:39:27.470Z,-1.18
2023-11-30T01:42:29.773Z,-1.32
2023-11-30T01:45:32.010Z,-1.47
2023-11-30T01:48:35.457Z,-1.63
2023-11-30T01:51:38.702Z,-1.88
2023-11-30T01:54:41.191Z,-1.90
2023-11-30T01:57:44.329Z,-1.97
2023-11-30T02:00:48.737Z,-2.34
2023-11-30T02:03:51.299Z,-2.49
2023-11-30T02:06:54.744Z,-2.58
2023-11-30T02:09:57.840Z,-2.57
2023-11-30T02:13:00.097Z,-2.90
2023-11-30T02:16:02.398Z,-3.05
2023-11-30T02:19:05.256Z,-3.13
2023-11-30T02:22:07.590Z,-3.06
2023-11-30T02:25:09.897Z,-2.97
2023-11-30T02:28:19.282Z,-3.07
2023-11-30T02:31:21.545Z,-3.09
2023-11-30T02:34:23.875Z,-3.16
2023-11-30T02:37:26.140Z,-3.30
2023-11-30T02:40:28.448Z,-3.30
2023-11-30T02:43:31.029Z,-3.34
2023-11-30T02:46:33.371Z,-3.57
2023-11-30T02:49:35.661Z,-3.59
2023-11-30T02:52:38.075Z,-3.66
2023-11-30T02:55:41.295Z,-3.65
2023-11-30T02:58:43.633Z,-3.71
2023-11-30T03:01:50.525Z,-3.46
2023-11-30T03:04:52.886Z,-3.43
2023-11-30T03:07:55.128Z,-3.62
2023-11-30T03:10:57.708Z,-3.66
2023-11-30T03:13:59.970Z,-3.44
2023-11-30T03:17:02.228Z,-3.48
2023-11-30T03:20:04.792Z,-3.56
2023-11-30T03:23:07.079Z,-3.42
2023-11-30T03:26:09.382Z,-3.36
2023-11-30T03:29:11.696Z,-3.39
2023-11-30T03:32:14.067Z,-3.41
2023-11-30T03:35:16.449Z,-3.38
2023-11-30T03:38:21.881Z,-3.39
2023-11-30T03:41:24.759Z,-3.35
2023-11-30T03:44:27.033Z,-3.10
2023-11-30T03:47:29.367Z,-2.91
2023-11-30T03:50:31.630Z,-2.84
2023-11-30T03:53:33.956Z,-2.72
2023-11-30T03:56:37.726Z,-2.69
2023-11-30T03:59:40.436Z,-2.56
2023-11-30T04:02:43.500Z,-2.60
2023-11-30T04:05:45.956Z,-2.67
2023-11-30T04:08:48.488Z,-2.64
2023-11-30T04:11:51.598Z,-2.58
2023-11-30T04:14:54.136Z,-2.61
2023-11-30T04:17:57.159Z,-2.64
2023-11-30T04:20:59.549Z,-2.59
2023-11-30T04:24:01.974Z,-2.59
2023-11-30T04:27:04.604Z,-2.57
2023-11-30T04:30:07.638Z,-2.51
2023-11-30T04:33:11.343Z,-2.55
2023-11-30T04:36:14.949Z,-2.79
2023-11-30T04:39:17.183Z,-2.72
2023-11-30T04:42:19.367Z,-3.05
2023-11-30T04:45:21.747Z,-2.88
2023-11-30T04:48:24.086Z,-2.84
2023-11-30T04:51:26.982Z,-3.07
2023-11-30T04:54:29.369Z,-3.08
2023-11-30T04:57:31.519Z,-3.08
2023-11-30T05:00:33.733Z,-3.06
2023-11-30T05:03:36.675Z,-2.97
2023-11-30T05:06:39.101Z,-3.08
2023-11-30T05:09:41.330Z,-2.88
2023-11-30T05:12:44.306Z,-2.80
2023-11-30T05:15:47.619Z,-2.76
2023-11-30T05:18:49.909Z,-2.55
2023-11-30T05:21:52.282Z,-2.67
2023-11-30T05:24:54.561Z,-2.77
2023-11-30T05:27:58.833Z,-2.98
2023-11-30T05:31:01.349Z,-3.06
2023-11-30T05:34:03.740Z,-3.06
2023-11-30T05:37:05.995Z,-2.93
2023-11-30T05:40:09.087Z,-2.89
2023-11-30T05:43:11.369Z,-2.67
2023-11-30T05:46:13.713Z,-2.85
2023-11-30T05:49:16.188Z,-2.66
2023-11-30T05:52:18.374Z,-2.65
2023-11-30T05:55:20.903Z,-2.65
2023-11-30T05:58:23.181Z,-2.48
2023-11-30T06:01:25.462Z,-2.71
2023-11-30T06:04:29.644Z,-2.67
2023-11-30T06:07:32.119Z,-2.45
2023-11-30T06:10:34.308Z,-2.64
2023-11-30T06:13:36.470Z,-2.42
2023-11-30T06:16:38.741Z,-2.30
2023-11-30T06:19:41.842Z,-2.33
2023-11-30T06:22:44.085Z,-2.21
2023-11-30T06:25:46.390Z,-2.11
2023-11-30T06:28:48.655Z,-2.13
2023-11-30T06:31:50.933Z,-2.17
2023-11-30T06:34:53.243Z,-2.31
2023-11-30T06:37:55.501Z,-2.42
2023-11-30T06:40:58.058Z,-2.20
2023-11-30T06:44:00.437Z,-1.99
2023-11-30T06:47:02.827Z,-1.97
2023-11-30T06:50:05.830Z,-1.92
2023-11-30T06:53:08.100Z,-1.91
2023-11-30T06:56:11.333Z,-1.93
2023-11-30T06:59:13.589Z,-2.06
2023-11-30T07:02:15.767Z,-2.03
2023-11-30T07:05:17.891Z,-2.03
2023-11-30T07:08:20.259Z,-2.13
2023-11-30T07:11:22.858Z,-2.07
2023-11-30T07:14:25.162Z,-1.97
2023-11-30T07:17:27.439Z,-1.93
2023-11-30T07:20:29.758Z,-2.03
2023-11-30T07:23:32.941Z,-2.16
2023-11-30T07:26:35.166Z,-1.97
2023-11-30T07:29:39.185Z,-1.93
2023-11-30T07:32:41.530Z,-2.03
2023-11-30T07:35:44.043Z,-2.15
2023-11-30T07:38:46.204Z,-2.08
2023-11-30T07:41:49.884Z,-2.00
2023-11-30T07:44:53.479Z,-1.94
2023-11-30T07:47:57.948Z,-1.92
2023-11-30T07:51:00.439Z,-1.84
2023-11-30T07:54:02.996Z,-1.69
2023-11-30T07:57:05.693Z,-1.94
2023-11-30T08:00:09.749Z,-2.03
2023-11-30T08:03:12.176Z,-1.75
2023-11-30T08:06:14.710Z,-1.99
2023-11-30T08:09:17.987Z,-1.78
2023-11-30T08:12:20.303Z,-1.64
2023-11-30T08:15:22.466Z,-1.80
2023-11-30T08:18:26.095Z,-1.62
2023-11-30T08:21:29.165Z,-1.48
2023-11-30T08:24:31.629Z,-1.48
2023-11-30T08:27:34.762Z,-1.50
2023-11-30T08:33:53.608Z,-1.56
2023-11-30T08:36:55.873Z,-1.46
2023-11-30T08:40:00.231Z,-1.55
2023-11-30T08:43:03.057Z,-1.59
2023-11-30T08:46:05.645Z,-1.61
2023-11-30T08:49:08.024Z,-1.47
2023-11-30T08:52:10.272Z,-1.49
2023-11-30T08:55:12.613Z,-1.62
2023-11-30T08:58:15.227Z,-1.59
2023-11-30T09:01:17.593Z,-1.50
2023-11-30T09:04:20.089Z,-1.46
2023-11-30T09:07:22.409Z,-1.62
2023-11-30T09:10:24.651Z,-1.43
2023-11-30T09:13:26.926Z,-1.48
2023-11-30T09:16:29.243Z,-1.45
2023-11-30T09:19:31.445Z,-1.44
2023-11-30T09:22:34.100Z,-1.47
2023-11-30T09:25:36.384Z,-1.60
2023-11-30T09:28:38.745Z,-1.50
2023-11-30T09:31:42.406Z,-1.41
2023-11-30T09:34:44.818Z,-1.46
2023-11-30T09:37:49.229Z,-1.26
2023-11-30T09:40:52.873Z,-1.07
2023-11-30T09:43:57.768Z,-1.09
2023-11-30T09:47:00.745Z,-1.02
2023-11-30T09:50:03.528Z,-0.90
2023-11-30T09:53:05.979Z,-0.83
2023-11-30T09:56:09.035Z,-0.79
2023-11-30T09:59:13.115Z,-0.82
2023-11-30T10:02:15.401Z,-0.94
2023-11-30T10:05:17.863Z,-1.24
2023-11-30T10:08:20.190Z,-1.00
2023-11-30T10:11:22.492Z,-1.04
2023-11-30T10:14:26.100Z,-1.05
2023-11-30T10:17:29.632Z,-1.06
2023-11-30T10:20:32.120Z,-0.98
2023-11-30T10:23:34.459Z,-0.82
2023-11-30T10:26:37.875Z,-0.93
2023-11-30T10:29:43.165Z,-0.88
2023-11-30T10:32:45.887Z,-0.91
2023-11-30T10:35:51.100Z,-0.93
2023-11-30T10:38:55.961Z,-0.94
2023-11-30T10:42:02.031Z,-0.92
2023-11-30T10:45:07.697Z,-0.95
2023-11-30T10:48:13.475Z,-0.94
2023-11-30T10:51:16.492Z,-0.90
2023-11-30T10:54:27.921Z,-0.90
2023-11-30T10:57:30.805Z,-1.15
2023-11-30T11:00:36.460Z,-1.04
2023-11-30T11:03:48.533Z,-0.97
2023-11-30T11:06:51.050Z,-0.97
2023-11-30T11:09:55.524Z,-0.92
2023-11-30T11:13:01.990Z,-0.98
2023-11-30T11:16:04.913Z,-0.99
2023-11-30T11:19:09.359Z,-0.99
2023-11-30T11:22:21.409Z,-1.12
2023-11-30T11:25:25.107Z,-1.16
2023-11-30T11:28:28.675Z,-1.18
2023-11-30T11:31:31.139Z,-1.41
2023-11-30T11:34:33.715Z,-1.28
2023-11-30T11:37:36.301Z,-1.40
2023-11-30T11:40:40.374Z,-1.23
2023-11-30T11:43:42.886Z,-1.14
2023-11-30T11:46:45.306Z,-1.24
2023-11-30T11:49:47.862Z,-1.24
2023-11-30T11:52:50.445Z,-1.19
2023-11-30T11:55:52.948Z,-1.16
2023-11-30T11:58:55.153Z,-1.24
2023-11-30T12:01:59.416Z,-1.18
2023-11-30T12:05:13.534Z,-1.17
2023-11-30T12:08:16.252Z,-1.17
2023-11-30T12:11:19.446Z,-1.34
2023-11-30T12:14:21.975Z,-1.27
2023-11-30T12:17:24.336Z,-1.23
2023-11-30T12:20:26.714Z,-1.13
2023-11-30T12:23:28.935Z,-1.04
2023-11-30T12:26:31.194Z,-1.09
2023-11-30T12:29:33.674Z,-1.12
2023-11-30T12:32:38.799Z,-1.02
2023-11-30T12:35:41.460Z,-1.05
2023-11-30T12:38:45.815Z,-0.99
2023-11-30T12:41:48.065Z,-1.03
2023-11-30T12:44:50.269Z,-1.11
2023-11-30T12:47:52.637Z,-0.93
2023-11-30T12:50:55.009Z,-0.88
2023-11-30T12:53:57.346Z,-0.91
2023-11-30T12:56:59.732Z,-1.00
2023-11-30T13:00:02.526Z,-0.89
2023-11-30T13:03:04.929Z,-1.09
2023-11-30T13:06:09.116Z,-0.90
2023-11-30T13:09:14.577Z,-0.90
2023-11-30T13:12:16.951Z,-0.95
2023-11-30T13:15:19.216Z,-1.00
2023-11-30T13:18:21.583Z,-0.99
2023-11-30T13:21:24.102Z,-0.96
2023-11-30T13:24:26.530Z,-0.97
2023-11-30T13:27:28.786Z,-0.98
2023-11-30T13:30:31.077Z,-1.00
2023-11-30T13:33:33.945Z,-1.04
2023-11-30T13:36:36.341Z,-1.07
2023-11-30T13:39:38.790Z,-0.99
2023-11-30T13:42:41.269Z,-1.02
2023-11-30T13:45:47.422Z,-1.12
2023-11-30T13:48:49.917Z,-1.12
2023-11-30T13:51:52.316Z,-0.99
2023-11-30T13:54:54.517Z,-1.01
2023-11-30T13:57:57.538Z,-0.88
2023-11-30T14:01:00.957Z,-0.93
2023-11-30T14:04:05.061Z,-0.83
2023-11-30T14:07:07.661Z,-0.86
2023-11-30T14:10:11.010Z,-0.84
2023-11-30T14:13:13.484Z,-0.85
2023-11-30T14:16:16.113Z,-0.80
2023-11-30T14:19:18.627Z,-0.74
2023-11-30T14:22:22.150Z,-0.71
2023-11-30T14:25:24.533Z,-0.74
2023-11-30T14:28:27.409Z,-0.82
2023-11-30T14:31:29.940Z,-0.83
2023-11-30T14:34:32.310Z,-0.80
2023-11-30T14:37:34.670Z,-0.82
2023-11-30T14:40:37.062Z,-0.81
2023-11-30T14:43:39.993Z,-0.70
2023-11-30T14:46:42.859Z,-0.73
2023-11-30T14:49:45.226Z,-0.85
2023-11-30T14:52:47.626Z,-0.97
2023-11-30T14:55:49.933Z,-0.91
2023-11-30T14:58:52.974Z,-0.86
2023-11-30T15:01:55.433Z,-0.74
2023-11-30T15:04:57.985Z,-0.72
2023-11-30T15:08:00.568Z,-0.83
2023-11-30T15:11:02.996Z,-0.80
2023-11-30T15:14:06.328Z,-0.75
2023-11-30T15:17:09.695Z,-0.75
2023-11-30T15:20:13.972Z,-0.73
2023-11-30T15:23:16.493Z,-0.75
2023-11-30T15:26:19.284Z,-0.71
2023-11-30T15:29:22.590Z,-0.65
2023-11-30T15:32:25.097Z,-0.66
2023-11-30T15:35:28.985Z,-0.74
2023-11-30T15:38:33.791Z,-0.74
2023-11-30T15:41:36.163Z,-0.65
2023-11-30T15:44:40.773Z,-0.59
2023-11-30T15:47:43.096Z,-0.63
2023-11-30T15:50:48.331Z,-0.64
2023-11-30T15:53:50.704Z,-0.74
2023-11-30T15:56:54.135Z,-0.81
2023-11-30T15:59:56.499Z,-0.66
2023-11-30T16:02:58.785Z,-0.80
2023-11-30T16:06:01.195Z,-0.72
2023-11-30T16:09:04.182Z,-0.70
2023-11-30T16:12:06.833Z,-0.66
2023-11-30T16:15:10.525Z,-0.74
2023-11-30T16:18:12.856Z,-0.70
2023-11-30T16:21:18.648Z,-0.66
2023-11-30T16:24:20.962Z,-0.69
2023-11-30T16:27:24.485Z,-0.72
2023-11-30T16:30:27.291Z,-0.64
2023-11-30T16:33:30.279Z,-0.66
2023-11-30T16:36:32.580Z,-0.74
2023-11-30T16:39:36.519Z,-0.62
2023-11-30T16:42:39.459Z,-0.56
2023-11-30T16:45:41.978Z,-0.65
2023-11-30T16:48:45.468Z,-0.74
2023-11-30T16:51:52.640Z,-0.68
2023-11-30T16:54:58.201Z,-0.63
2023-11-30T16:58:01.787Z,-0.71
2023-11-30T17:01:04.276Z,-0.61
2023-11-30T17:04:06.885Z,-0.55
2023-11-30T17:07:09.388Z,-0.52
2023-11-30T17:10:11.782Z,-0.58
2023-11-30T17:13:14.047Z,-0.55
2023-11-30T17:16:16.376Z,-0.56
2023-11-30T17:19:18.836Z,-0.46
2023-11-30T17:22:21.217Z,-0.52
2023-11-30T17:25:23.742Z,-0.50
2023-11-30T17:28:26.196Z,-0.58
2023-11-30T17:31:28.736Z,-0.50
2023-11-30T17:34:31.225Z,-0.45
2023-11-30T17:37:33.966Z,-0.64
2023-11-30T17:40:36.317Z,-0.52
2023-11-30T17:43:38.663Z,-0.47
2023-11-30T17:46:43.517Z,-0.45
2023-11-30T17:49:45.926Z,-0.42
2023-11-30T17:52:52.330Z,-0.40
2023-11-30T17:55:54.787Z,-0.42
2023-11-30T17:58:57.178Z,-0.36
2023-11-30T18:01:59.719Z,-0.46
2023-11-30T18:05:02.156Z,-0.36
2023-11-30T18:08:04.580Z,-0.30
2023-11-30T18:11:07.356Z,-0.32
2023-11-30T18:14:10.051Z,-0.32
2023-11-30T18:17:12.400Z,-0.34
2023-11-30T18:20:14.775Z,-0.39
2023-11-30T18:23:17.370Z,-0.16
2023-11-30T18:26:28.802Z,-145.42
2023-11-30T18:29:39.344Z,-0.16
2023-11-30T18:32:43.199Z,-0.16
2023-11-30T18:36:47.308Z,-145.42
2023-11-30T18:39:49.876Z,-0.23
2023-11-30T18:42:53.593Z,-145.42
2023-11-30T18:45:56.614Z,0.09
2023-11-30T18:48:59.393Z,0.09
2023-11-30T18:52:11.757Z,-145.42
2023-11-30T18:55:34.750Z,0.25
2023-11-30T18:58:36.959Z,0.31
2023-11-30T19:01:39.282Z,-145.42
2023-11-30T19:04:43.140Z,-98.49
2023-11-30T19:07:53.957Z,0.31
2023-11-30T19:10:56.270Z,-98.49
2023-11-30T19:13:58.718Z,0.18
2023-11-30T19:17:01.111Z,0.18
2023-11-30T19:20:06.506Z,0.18
2023-11-30T19:23:08.780Z,0.39
2023-11-30T19:26:11.265Z,0.38
2023-11-30T19:29:16.743Z,-145.42
2023-11-30T19:32:19.629Z,0.38
2023-11-30T19:35:22.014Z,0.38
2023-11-30T19:38:27.484Z,0.34
2023-11-30T19:41:29.952Z,0.20
2023-11-30T19:44:32.173Z,0.31
2023-11-30T19:47:35.020Z,0.24
2023-11-30T19:50:37.412Z,0.35
2023-11-30T19:58:40.755Z,0.35
2023-11-30T20:01:43.169Z,0.39
2023-11-30T20:04:45.571Z,-145.42
2023-11-30T20:07:47.913Z,-145.42
2023-11-30T20:10:53.179Z,-145.42
2023-11-30T20:13:55.649Z,-145.42
2023-11-30T20:16:58.041Z,-145.42
2023-11-30T20:20:00.401Z,-145.42
2023-11-30T20:23:05.264Z,-145.42
2023-11-30T20:26:08.089Z,-145.42
2023-11-30T20:29:10.997Z,-145.42
2023-11-30T20:32:13.623Z,-145.42
2023-11-30T20:35:16.104Z,-145.42
2023-11-30T20:38:18.441Z,-145.42
2023-11-30T20:41:20.629Z,-145.42
2023-11-30T20:44:22.971Z,-145.42
2023-11-30T20:47:26.212Z,-145.42
2023-11-30T20:50:28.818Z,-145.42
2023-11-30T20:53:31.186Z,-145.42
2023-11-30T20:56:33.427Z,-145.42
2023-11-30T20:59:36.117Z,-145.42
2023-11-30T21:02:38.480Z,-145.42
2023-11-30T21:05:40.873Z,-145.42
2023-11-30T21:08:43.333Z,-145.42
2023-11-30T21:11:45.751Z,-145.42
2023-11-30T21:14:48.534Z,0.36
2023-11-30T21:17:50.899Z,0.33
2023-11-30T21:25:59.133Z,0.33
2023-11-30T21:29:01.473Z,0.28
2023-11-30T21:32:03.841Z,0.35
2023-11-30T21:35:06.173Z,0.35
2023-11-30T21:38:08.607Z,0.35
2023-11-30T21:41:16.729Z,0.37
2023-11-30T21:44:19.088Z,0.37
2023-11-30T21:47:21.630Z,0.37
2023-11-30T21:50:25.477Z,0.42
2023-11-30T21:53:28.692Z,0.41
2023-11-30T21:56:31.180Z,0.36
2023-11-30T21:59:37.613Z,0.36
2023-11-30T22:02:41.061Z,0.44
2023-11-30T22:05:43.790Z,0.46
2023-11-30T22:08:49.922Z,0.41
2023-11-30T22:11:52.428Z,0.45
2023-11-30T22:14:54.765Z,0.39
2023-11-30T22:17:57.776Z,0.40
2023-11-30T22:21:00.246Z,0.39
2023-11-30T22:24:02.631Z,0.42
2023-11-30T22:27:05.418Z,0.36
2023-11-30T22:30:08.865Z,0.29
2023-11-30T22:33:11.300Z,0.32
2023-11-30T22:36:13.797Z,0.29
2023-11-30T22:39:16.089Z,0.35
2023-11-30T22:42:18.610Z,0.36
2023-11-30T22:45:21.041Z,0.37
2023-11-30T22:48:23.747Z,0.32
2023-11-30T22:51:26.217Z,0.30
2023-11-30T22:54:28.915Z,0.36
2023-11-30T22:57:31.480Z,0.39
2023-11-30T23:00:35.155Z,0.37
2023-11-30T23:03:37.793Z,0.42
2023-11-30T23:06:41.772Z,0.47
2023-11-30T23:09:44.310Z,0.47
2023-11-30T23:12:46.861Z,0.44
2023-11-30T23:15:49.488Z,0.44
2023-11-30T23:18:51.913Z,0.41
2023-11-30T23:21:54.545Z,0.37
2023-11-30T23:24:57.015Z,0.39
2023-11-30T23:28:00.764Z,0.38
2023-11-30T23:31:03.342Z,0.42
2023-11-30T23:34:05.922Z,0.37
2023-11-30T23:37:08.394Z,0.36
2023-11-30T23:40:11.460Z,0.34
2023-11-30T23:43:13.957Z,0.33
2023-11-30T23:46:16.466Z,0.37
2023-11-30T23:49:18.914Z,0.36
2023-11-30T23:52:21.360Z,0.41
2023-11-30T23:55:23.803Z,0.44
2023-11-30T23:58:26.221Z,0.43
